Time;durP1;ratioP1;P1;durP2;ratioP2;P2;SDS_P1;SDS_P2;PMS_P1;PMS_P2;Temp;Humidity;BMP_temperature;BMP_pressure;BME280_temperature;BME280_humidity;BME280_pressure;Samples;Min_cycle;Max_cycle;Signal;HPM_P1;HPM_P2
2021/05/22 00:01:36;;;;;;;3.92;3.38;;;11.70;99.90;;;;;;5047901;28;20041;-67
2021/05/22 00:04:04;;;;;;;5.30;3.35;;;11.60;99.90;;;;;;5046161;28;20045;-67
2021/05/22 00:06:32;;;;;;;5.63;3.65;;;11.50;99.90;;;;;;5048027;28;20050;-67
2021/05/22 00:08:59;;;;;;;4.00;3.20;;;11.50;99.90;;;;;;5047211;28;20495;-67
2021/05/22 00:11:26;;;;;;;4.10;3.55;;;11.50;99.90;;;;;;5046700;28;20081;-67
2021/05/22 00:14:04;;;;;;;6.38;3.53;;;11.50;99.90;;;;;;5035765;28;20060;-67
2021/05/22 00:16:32;;;;;;;4.25;3.10;;;11.50;99.90;;;;;;5053119;28;20048;-67
2021/05/22 00:19:00;;;;;;;4.20;3.20;;;11.50;99.90;;;;;;5053664;28;20045;-67
2021/05/22 00:21:28;;;;;;;4.22;3.40;;;11.50;99.90;;;;;;5054035;28;20395;-67
2021/05/22 00:23:56;;;;;;;5.60;3.60;;;11.50;99.90;;;;;;5049815;28;20136;-67
2021/05/22 00:26:23;;;;;;;4.07;3.47;;;11.40;99.90;;;;;;5052751;28;20053;-67
2021/05/22 00:28:50;;;;;;;7.25;3.63;;;11.40;99.90;;;;;;5051728;28;20049;-67
2021/05/22 00:31:18;;;;;;;6.35;3.60;;;11.40;99.90;;;;;;5050674;28;20098;-67
2021/05/22 00:33:45;;;;;;;4.15;3.38;;;11.40;99.90;;;;;;5053112;28;20498;-67
2021/05/22 00:36:13;;;;;;;4.20;3.40;;;11.40;99.90;;;;;;5052969;28;20048;-67
2021/05/22 00:38:40;;;;;;;5.05;3.50;;;11.30;99.90;;;;;;5050047;28;20045;-67
2021/05/22 00:41:08;;;;;;;5.00;3.70;;;11.30;99.90;;;;;;5050765;28;20668;-67
2021/05/22 00:43:35;;;;;;;4.10;3.08;;;11.30;99.90;;;;;;5032485;28;20088;-67
2021/05/22 00:46:04;;;;;;;4.57;3.15;;;11.30;99.90;;;;;;5052744;28;20415;-67
2021/05/22 00:48:33;;;;;;;3.83;3.17;;;11.20;99.90;;;;;;5049406;28;20045;-68
2021/05/22 00:51:00;;;;;;;5.20;3.58;;;11.20;99.90;;;;;;5049743;28;20099;-67
2021/05/22 00:53:28;;;;;;;3.92;3.40;;;11.20;99.90;;;;;;5048938;28;20057;-66
2021/05/22 00:55:58;;;;;;;6.22;3.53;;;11.20;99.90;;;;;;5049483;28;20067;-67
2021/05/22 00:58:26;;;;;;;4.07;3.22;;;11.10;99.90;;;;;;5050254;28;20053;-68
2021/05/22 01:00:56;;;;;;;3.50;2.97;;;11.10;99.90;;;;;;5048591;28;20041;-68
2021/05/22 01:03:27;;;;;;;4.47;3.25;;;11.10;99.90;;;;;;5051613;28;20033;-67
2021/05/22 01:06:08;;;;;;;6.05;3.40;;;11.00;99.90;;;;;;5052362;28;20079;-68
2021/05/22 01:08:37;;;;;;;6.88;3.20;;;10.90;99.90;;;;;;5049759;28;20044;-67
2021/05/22 01:11:20;;;;;;;5.75;3.75;;;11.00;99.90;;;;;;5051343;28;20052;-68
2021/05/22 01:14:02;;;;;;;;;;;10.90;99.90;;;;;;5051441;28;20387;-68
2021/05/22 01:16:32;;;;;;;5.20;3.60;;;11.00;99.90;;;;;;5052835;28;19967;-68
2021/05/22 01:19:01;;;;;;;3.80;3.30;;;11.00;99.90;;;;;;5051157;28;20053;-67
2021/05/22 01:21:29;;;;;;;5.93;3.45;;;11.00;99.90;;;;;;5049935;28;20053;-67
2021/05/22 01:24:16;;;;;;;4.55;3.42;;;11.00;99.90;;;;;;5049090;28;20053;-67
2021/05/22 01:26:45;;;;;;;3.70;3.30;;;11.00;99.90;;;;;;5048936;28;20037;-67
2021/05/22 01:29:13;;;;;;;4.70;3.33;;;11.00;99.90;;;;;;5034959;28;20053;-67
2021/05/22 01:31:41;;;;;;;4.80;3.40;;;11.00;99.90;;;;;;5047256;28;20091;-67
2021/05/22 01:34:09;;;;;;;5.85;3.33;;;11.00;99.90;;;;;;5050293;28;20048;-67
2021/05/22 01:36:42;;;;;;;3.78;3.30;;;10.90;99.90;;;;;;5049113;28;20043;-67
2021/05/22 01:39:09;;;;;;;4.32;3.15;;;10.90;99.90;;;;;;5050739;28;20492;-67
2021/05/22 01:41:36;;;;;;;5.50;3.30;;;10.90;99.90;;;;;;5048695;28;20049;-66
2021/05/22 01:44:04;;;;;;;6.63;3.65;;;10.90;99.90;;;;;;5051476;28;20557;-66
2021/05/22 01:46:34;;;;;;;4.20;3.40;;;10.90;99.90;;;;;;5050821;28;20115;-67
2021/05/22 01:49:04;;;;;;;4.95;3.00;;;10.90;99.90;;;;;;5047798;28;20048;-68
2021/05/22 01:51:31;;;;;;;4.55;3.40;;;10.80;99.90;;;;;;5050894;28;20057;-67
2021/05/22 01:54:10;;;;;;;3.97;3.40;;;10.80;99.90;;;;;;5052902;28;20398;-67
2021/05/22 01:56:38;;;;;;;3.70;3.30;;;10.90;99.90;;;;;;5048964;28;20049;-67
2021/05/22 01:59:05;;;;;;;3.95;3.55;;;10.90;99.90;;;;;;5049240;28;20045;-67
2021/05/22 02:01:33;;;;;;;6.10;3.83;;;11.00;99.90;;;;;;5052602;28;20069;-67
2021/05/22 02:04:04;;;;;;;4.28;3.75;;;10.90;99.90;;;;;;5050134;28;20407;-67
2021/05/22 02:06:39;;;;;;;3.83;3.53;;;10.90;99.90;;;;;;5051761;28;20045;-67
2021/05/22 02:09:06;;;;;;;5.57;4.10;;;10.90;99.90;;;;;;5049867;28;20057;-67
2021/05/22 02:11:39;;;;;;;5.22;3.50;;;10.90;99.90;;;;;;5052146;28;20048;-67
2021/05/22 02:14:07;;;;;;;;;;;10.90;99.90;;;;;;5054304;28;20063;-67
2021/05/22 02:16:48;;;;;;;4.32;3.78;;;10.90;99.90;;;;;;5051797;28;19924;-67
2021/05/22 02:19:18;;;;;;;5.78;3.80;;;10.90;99.90;;;;;;5049367;28;20055;-67
2021/05/22 02:21:48;;;;;;;4.30;3.90;;;10.90;99.90;;;;;;5034779;28;20104;-67
2021/05/22 02:24:19;;;;;;;4.45;3.80;;;10.90;99.90;;;;;;5052190;28;20104;-67
2021/05/22 02:26:46;;;;;;;6.50;3.95;;;10.90;99.90;;;;;;5052890;28;20057;-66
2021/05/22 02:29:19;;;;;;;4.47;3.90;;;10.90;99.90;;;;;;5053116;28;20048;-67
2021/05/22 02:31:49;;;;;;;5.55;3.80;;;10.90;99.90;;;;;;5052606;28;20053;-67
2021/05/22 02:34:20;;;;;;;5.82;3.67;;;10.90;99.90;;;;;;5048488;28;20055;-66
2021/05/22 02:36:50;;;;;;;4.93;3.95;;;11.00;99.90;;;;;;5054936;28;20052;-67
2021/05/22 02:39:18;;;;;;;4.45;3.80;;;11.00;99.90;;;;;;5050109;28;20053;-68
2021/05/22 02:41:48;;;;;;;4.22;3.83;;;10.90;99.90;;;;;;5052941;28;20527;-67
2021/05/22 02:44:17;;;;;;;4.13;3.72;;;10.90;99.90;;;;;;5048676;28;20048;-67
2021/05/22 02:46:49;;;;;;;4.20;3.72;;;10.80;99.90;;;;;;5050202;28;20045;-67
2021/05/22 02:49:20;;;;;;;7.13;3.70;;;10.70;99.90;;;;;;5049118;28;20073;-67
2021/05/22 02:51:49;;;;;;;4.15;3.50;;;10.60;99.90;;;;;;5050225;28;20148;-67
2021/05/22 02:54:19;;;;;;;4.18;3.40;;;10.50;99.90;;;;;;5051752;28;20056;-67
2021/05/22 02:56:48;;;;;;;6.65;3.63;;;10.40;99.90;;;;;;5050963;28;20118;-67
2021/05/22 02:59:17;;;;;;;4.45;3.30;;;10.40;99.90;;;;;;5053994;28;20071;-67
2021/05/22 03:01:45;;;;;;;4.38;3.28;;;10.40;99.90;;;;;;5034837;28;20079;-67
2021/05/22 03:04:14;;;;;;;6.53;3.55;;;10.30;99.90;;;;;;5044763;28;20641;-68
2021/05/22 03:06:42;;;;;;;6.13;3.83;;;10.30;99.90;;;;;;5047451;28;20041;-67
2021/05/22 03:09:09;;;;;;;4.65;3.28;;;10.40;99.90;;;;;;5050353;28;20064;-67
2021/05/22 03:11:37;;;;;;;5.43;3.22;;;10.40;99.90;;;;;;5046681;28;20061;-67
2021/05/22 03:14:04;;;;;;;5.43;3.08;;;10.40;99.90;;;;;;5048176;28;20055;-67
2021/05/22 03:16:32;;;;;;;5.50;3.20;;;10.40;99.90;;;;;;5048940;28;20051;-67
2021/05/22 03:19:00;;;;;;;5.60;3.20;;;10.30;99.90;;;;;;5049630;28;20056;-67
2021/05/22 03:21:27;;;;;;;5.03;3.00;;;10.30;99.90;;;;;;5048609;28;20069;-67
2021/05/22 03:23:54;;;;;;;4.65;3.20;;;10.30;99.90;;;;;;5047273;28;20053;-67
2021/05/22 03:26:22;;;;;;;4.15;3.10;;;10.30;99.90;;;;;;5051348;28;20147;-67
2021/05/22 03:28:49;;;;;;;8.48;3.00;;;10.30;99.90;;;;;;5050770;28;20060;-67
2021/05/22 03:31:17;;;;;;;4.28;3.40;;;10.30;99.90;;;;;;5048113;28;20048;-67
2021/05/22 03:34:03;;;;;;;6.07;3.03;;;10.40;99.90;;;;;;5047817;28;20142;-67
2021/05/22 03:36:30;;;;;;;5.30;3.15;;;10.30;99.90;;;;;;5049262;28;20075;-68
2021/05/22 03:38:58;;;;;;;3.65;2.90;;;10.30;99.90;;;;;;5050496;28;20049;-68
2021/05/22 03:41:25;;;;;;;4.80;3.20;;;10.20;99.90;;;;;;5045437;28;20140;-68
2021/05/22 03:43:52;;;;;;;5.50;3.10;;;10.20;99.90;;;;;;5050552;28;20051;-68
2021/05/22 03:46:20;;;;;;;3.13;2.83;;;9.90;99.90;;;;;;5049494;28;20049;-68
2021/05/22 03:48:47;;;;;;;3.63;3.10;;;9.80;99.90;;;;;;5045200;28;20187;-68
2021/05/22 03:51:15;;;;;;;3.40;3.10;;;9.70;99.90;;;;;;5047828;28;20068;-67
2021/05/22 03:53:42;;;;;;;4.63;3.05;;;9.60;99.90;;;;;;5048920;28;20052;-68
2021/05/22 03:56:09;;;;;;;4.97;3.42;;;9.50;99.90;;;;;;5047753;28;20103;-68
2021/05/22 03:58:37;;;;;;;3.63;2.90;;;9.50;99.90;;;;;;5048655;28;20055;-68
2021/05/22 04:01:04;;;;;;;3.95;2.90;;;9.50;99.90;;;;;;5050198;28;20499;-68
2021/05/22 04:03:32;;;;;;;3.15;2.85;;;9.50;99.90;;;;;;5048623;28;20519;-67
2021/05/22 04:05:59;;;;;;;2.70;2.50;;;9.50;99.90;;;;;;5049826;28;20476;-68
2021/05/22 04:08:27;;;;;;;3.17;2.85;;;9.60;99.90;;;;;;5050367;28;20064;-67
2021/05/22 04:10:54;;;;;;;3.40;2.70;;;9.50;99.90;;;;;;5048556;28;20503;-67
2021/05/22 04:13:21;;;;;;;6.13;3.10;;;9.40;99.90;;;;;;5048744;28;20507;-67
2021/05/22 04:15:49;;;;;;;3.13;2.70;;;9.40;99.90;;;;;;5049528;28;20048;-67
2021/05/22 04:18:16;;;;;;;5.10;2.67;;;9.40;99.90;;;;;;5045064;28;20112;-68
2021/05/22 04:20:45;;;;;;;3.13;2.60;;;9.50;99.90;;;;;;5048771;28;20099;-67
2021/05/22 04:23:13;;;;;;;2.92;2.40;;;9.50;99.90;;;;;;5045117;28;20057;-67
2021/05/22 04:25:40;;;;;;;2.92;2.33;;;9.50;99.90;;;;;;5047253;28;20075;-67
2021/05/22 04:28:07;;;;;;;2.75;2.53;;;9.50;99.90;;;;;;5048844;28;20152;-67
2021/05/22 04:30:35;;;;;;;2.85;2.53;;;9.50;99.90;;;;;;5049944;28;20040;-67
2021/05/22 04:33:03;;;;;;;2.95;2.55;;;9.60;99.90;;;;;;5049738;28;20519;-67
2021/05/22 04:35:31;;;;;;;3.38;2.40;;;9.60;99.90;;;;;;5049541;28;20549;-67
2021/05/22 04:37:58;;;;;;;4.45;2.53;;;9.70;99.90;;;;;;5049913;28;20048;-67
2021/05/22 04:40:26;;;;;;;3.15;2.65;;;9.70;99.90;;;;;;5047910;28;20052;-67
2021/05/22 04:42:54;;;;;;;2.95;2.60;;;9.80;99.90;;;;;;5048862;28;20045;-67
2021/05/22 04:45:21;;;;;;;5.07;2.47;;;9.90;99.90;;;;;;5029476;28;20044;-67
2021/05/22 04:47:48;;;;;;;3.65;2.92;;;10.00;99.90;;;;;;5046386;28;20045;-67
2021/05/22 04:50:16;;;;;;;3.90;2.90;;;10.10;99.90;;;;;;5048017;28;20471;-67
2021/05/22 04:52:43;;;;;;;3.40;3.10;;;10.00;99.90;;;;;;5047539;28;20049;-67
2021/05/22 04:55:11;;;;;;;4.90;3.20;;;10.10;99.90;;;;;;5049034;28;20099;-67
2021/05/22 04:57:39;;;;;;;4.75;3.33;;;10.10;99.90;;;;;;5049039;28;20044;-66
2021/05/22 05:00:07;;;;;;;5.68;3.63;;;10.20;99.90;;;;;;5049167;28;20055;-66
2021/05/22 05:02:36;;;;;;;3.72;3.30;;;10.30;99.90;;;;;;5048154;28;20407;-67
2021/05/22 05:05:04;;;;;;;4.22;3.10;;;10.40;99.90;;;;;;5052625;28;20495;-67
2021/05/22 05:07:31;;;;;;;3.65;3.22;;;10.40;99.90;;;;;;5051675;28;20500;-66
2021/05/22 05:09:59;;;;;;;4.45;3.30;;;10.60;99.90;;;;;;5053424;28;20055;-67
2021/05/22 05:12:27;;;;;;;5.15;3.50;;;10.60;99.90;;;;;;5048405;28;20044;-67
2021/05/22 05:14:55;;;;;;;4.03;3.30;;;10.70;99.90;;;;;;5050926;28;20053;-67
2021/05/22 05:17:22;;;;;;;5.13;3.78;;;10.90;99.90;;;;;;5050839;28;20144;-67
2021/05/22 05:19:50;;;;;;;6.75;4.13;;;10.90;99.90;;;;;;5049397;28;20057;-67
2021/05/22 05:22:17;;;;;;;6.53;3.60;;;11.00;99.90;;;;;;5048225;28;20496;-67
2021/05/22 05:24:45;;;;;;;5.13;3.63;;;11.10;99.90;;;;;;5049801;28;20495;-67
2021/05/22 05:27:12;;;;;;;5.85;4.20;;;11.20;99.90;;;;;;5034522;28;20037;-67
2021/05/22 05:29:41;;;;;;;5.30;4.10;;;11.20;99.90;;;;;;5048173;28;20049;-67
2021/05/22 05:32:09;;;;;;;7.00;4.10;;;11.20;99.90;;;;;;5047952;28;20051;-67
2021/05/22 05:34:38;;;;;;;5.10;4.30;;;11.20;99.90;;;;;;5050042;28;20383;-67
2021/05/22 05:37:05;;;;;;;7.30;4.40;;;11.30;99.90;;;;;;5048213;28;20044;-67
2021/05/22 05:39:33;;;;;;;6.32;4.15;;;11.30;99.90;;;;;;5049433;28;20123;-67
2021/05/22 05:42:00;;;;;;;4.60;4.00;;;11.40;99.90;;;;;;5050749;28;20494;-67
2021/05/22 05:44:28;;;;;;;5.70;4.00;;;11.40;99.90;;;;;;5048206;28;20044;-69
2021/05/22 05:46:56;;;;;;;5.72;4.20;;;11.40;99.90;;;;;;5049357;28;20083;-68
2021/05/22 05:49:28;;;;;;;4.90;4.30;;;11.40;99.90;;;;;;5028740;28;20057;-67
2021/05/22 05:51:57;;;;;;;5.63;4.22;;;11.50;99.90;;;;;;5050464;28;20048;-67
2021/05/22 05:54:24;;;;;;;4.55;4.07;;;11.60;99.90;;;;;;5050061;28;20056;-68
2021/05/22 05:56:52;;;;;;;5.25;4.47;;;11.60;99.90;;;;;;5048067;28;20057;-67
2021/05/22 05:59:20;;;;;;;7.00;4.80;;;11.60;99.90;;;;;;5048584;28;20056;-68
2021/05/22 06:01:48;;;;;;;4.70;4.30;;;11.60;99.90;;;;;;5047718;28;20049;-68
2021/05/22 06:04:15;;;;;;;5.18;4.32;;;11.60;99.90;;;;;;5049246;28;20052;-68
2021/05/22 06:06:43;;;;;;;5.18;4.13;;;11.40;99.90;;;;;;5051027;28;20043;-68
2021/05/22 06:09:11;;;;;;;7.80;4.82;;;11.50;99.90;;;;;;5049701;28;20128;-67
2021/05/22 06:11:38;;;;;;;6.65;4.45;;;11.70;99.90;;;;;;5048831;28;20045;-67
2021/05/22 06:14:12;;;;;;;7.50;4.38;;;11.90;99.90;;;;;;5052019;28;20037;-67
2021/05/22 06:16:41;;;;;;;6.15;4.63;;;12.20;99.90;;;;;;5048632;28;20045;-67
2021/05/22 06:19:09;;;;;;;4.97;4.30;;;12.40;99.90;;;;;;5050511;28;20040;-67
2021/05/22 06:21:38;;;;;;;5.75;4.45;;;12.20;99.90;;;;;;5047566;28;20045;-67
2021/05/22 06:24:06;;;;;;;8.10;4.40;;;12.10;99.90;;;;;;5051116;28;20681;-67
2021/05/22 06:26:34;;;;;;;5.70;4.47;;;11.80;99.90;;;;;;5050395;28;20083;-68
2021/05/22 06:29:01;;;;;;;7.82;4.90;;;11.70;99.90;;;;;;5050783;28;20049;-67
2021/05/22 06:31:29;;;;;;;5.90;4.72;;;11.60;99.90;;;;;;5049816;28;20087;-68
2021/05/22 06:33:56;;;;;;;5.75;4.82;;;11.60;99.90;;;;;;5046505;28;20137;-68
2021/05/22 06:36:27;;;;;;;7.45;4.97;;;11.40;99.90;;;;;;5050685;28;20045;-68
2021/05/22 06:38:55;;;;;;;6.50;5.03;;;11.40;99.90;;;;;;5049564;28;20118;-67
2021/05/22 06:41:23;;;;;;;5.43;4.75;;;11.50;99.90;;;;;;5049887;28;20075;-68
2021/05/22 06:43:51;;;;;;;5.78;5.03;;;11.60;99.90;;;;;;5048235;28;20091;-67
2021/05/22 06:48:46;;;;;;;7.15;4.93;;;11.90;99.90;;;;;;5046035;28;20041;-68
2021/05/22 06:51:13;;;;;;;6.20;5.40;;;11.90;99.90;;;;;;5047563;28;20102;-68
2021/05/22 06:53:42;;;;;;;5.72;5.20;;;12.00;99.90;;;;;;5047800;28;20077;-68
2021/05/22 06:56:09;;;;;;;6.95;5.20;;;12.30;99.90;;;;;;5048692;28;20098;-67
2021/05/22 06:58:37;;;;;;;7.60;5.05;;;12.40;99.90;;;;;;5046338;28;20449;-68
2021/05/22 07:01:04;;;;;;;10.45;5.40;;;12.60;99.90;;;;;;5048439;28;20407;-67
2021/05/22 07:03:31;;;;;;;6.95;5.25;;;12.70;99.90;;;;;;5050969;28;20052;-67
2021/05/22 07:06:01;;;;;;;7.28;5.45;;;12.50;99.90;;;;;;5052099;28;20545;-68
2021/05/22 07:08:28;;;;;;;9.98;5.70;;;12.50;99.90;;;;;;5050257;28;20037;-68
2021/05/22 07:10:56;;;;;;;7.03;4.75;;;12.80;99.90;;;;;;5051736;28;20637;-68
2021/05/22 07:13:23;;;;;;;7.65;5.70;;;12.90;99.90;;;;;;5048620;28;20041;-68
2021/05/22 07:15:50;;;;;;;8.77;5.55;;;13.00;99.90;;;;;;5051566;28;20471;-69
2021/05/22 07:18:18;;;;;;;8.45;5.47;;;12.80;99.90;;;;;;5048088;28;20083;-68
2021/05/22 07:20:46;;;;;;;9.02;5.60;;;12.80;99.90;;;;;;5051553;28;20057;-69
2021/05/22 07:23:13;;;;;;;7.43;5.40;;;12.80;99.90;;;;;;5032665;28;20491;-68
2021/05/22 07:25:41;;;;;;;6.30;5.70;;;12.90;99.90;;;;;;5050480;28;20045;-68
2021/05/22 07:28:12;;;;;;;7.53;5.75;;;12.90;99.90;;;;;;5050412;28;20045;-68
2021/05/22 07:30:40;;;;;;;7.70;5.60;;;13.00;99.90;;;;;;5048128;28;20094;-68
2021/05/22 07:33:08;;;;;;;6.57;5.97;;;13.30;99.90;;;;;;5046191;28;20402;-68
2021/05/22 07:35:36;;;;;;;7.65;5.85;;;13.30;99.90;;;;;;5049928;28;20079;-69
2021/05/22 07:38:04;;;;;;;10.18;6.63;;;13.10;99.90;;;;;;5047470;28;20056;-68
2021/05/22 07:40:31;;;;;;;6.30;5.70;;;13.10;99.90;;;;;;5050807;28;20044;-68
2021/05/22 07:42:59;;;;;;;6.75;6.07;;;13.10;99.90;;;;;;5023886;28;20103;-69
2021/05/22 07:45:27;;;;;;;8.55;6.03;;;13.10;99.90;;;;;;5046037;28;20048;-68
2021/05/22 07:47:54;;;;;;;7.45;6.50;;;13.10;99.90;;;;;;5063819;28;20051;-69
2021/05/22 07:50:21;;;;;;;6.80;6.00;;;13.10;99.90;;;;;;5047452;28;20077;-68
2021/05/22 07:52:49;;;;;;;6.95;6.30;;;13.30;99.90;;;;;;5046778;28;20049;-69
2021/05/22 07:55:16;;;;;;;6.50;5.90;;;13.20;99.90;;;;;;5050945;28;20052;-68
2021/05/22 07:57:44;;;;;;;7.60;5.70;;;12.90;99.90;;;;;;5047530;28;20095;-68
2021/05/22 08:00:11;;;;;;;6.75;6.03;;;12.90;99.90;;;;;;5068258;28;20045;-68
2021/05/22 08:02:39;;;;;;;9.80;5.90;;;13.10;99.90;;;;;;5050939;28;20189;-69
2021/05/22 08:05:07;;;;;;;6.10;5.50;;;13.00;99.90;;;;;;5051533;28;20064;-69
2021/05/22 08:07:37;;;;;;;7.32;5.70;;;13.00;99.90;;;;;;5047564;28;20103;-68
2021/05/22 08:10:05;;;;;;;7.65;5.70;;;13.10;99.90;;;;;;5048820;28;20056;-68
2021/05/22 08:12:33;;;;;;;6.20;5.70;;;13.30;99.90;;;;;;5050058;28;20040;-68
2021/05/22 08:15:02;;;;;;;6.50;5.90;;;13.60;99.90;;;;;;5048968;28;20053;-68
2021/05/22 08:17:30;;;;;;;6.95;6.30;;;13.80;99.90;;;;;;5050867;28;20053;-69
2021/05/22 08:19:57;;;;;;;7.13;6.30;;;14.10;99.90;;;;;;5050288;28;20058;-68
2021/05/22 08:22:24;;;;;;;7.82;7.13;;;14.20;99.90;;;;;;5047184;28;20114;-69
2021/05/22 08:24:52;;;;;;;8.57;6.60;;;14.10;99.90;;;;;;5049546;28;20041;-68
2021/05/22 08:27:21;;;;;;;7.18;6.57;;;14.30;99.90;;;;;;5046585;28;20450;-69
2021/05/22 08:29:55;;;;;;;7.22;6.50;;;14.20;99.90;;;;;;5045905;28;20072;-69
2021/05/22 08:32:25;;;;;;;7.45;6.80;;;14.00;99.90;;;;;;5046804;28;20063;-69
2021/05/22 08:34:55;;;;;;;7.75;6.95;;;13.80;99.90;;;;;;5049377;28;20492;-68
2021/05/22 08:37:23;;;;;;;7.22;6.63;;;13.80;99.90;;;;;;5052031;28;20124;-68
2021/05/22 08:39:52;;;;;;;7.85;6.30;;;13.80;99.90;;;;;;5050009;28;20520;-67
2021/05/22 08:42:25;;;;;;;7.30;6.60;;;14.00;99.90;;;;;;5047124;28;20053;-67
2021/05/22 08:44:54;;;;;;;7.95;6.40;;;14.10;99.90;;;;;;5050510;28;20048;-68
2021/05/22 08:47:22;;;;;;;10.50;7.13;;;14.20;99.90;;;;;;5050442;28;20052;-68
2021/05/22 08:49:51;;;;;;;7.78;7.10;;;14.20;99.90;;;;;;5050460;28;20049;-68
2021/05/22 08:52:20;;;;;;;8.00;7.20;;;14.40;99.90;;;;;;5051239;28;20048;-68
2021/05/22 08:54:49;;;;;;;9.05;6.82;;;14.60;99.90;;;;;;5057558;28;20067;-68
2021/05/22 08:57:18;;;;;;;7.35;6.63;;;15.00;99.90;;;;;;5050326;28;20038;-68
2021/05/22 08:59:47;;;;;;;8.52;6.60;;;14.90;99.90;;;;;;5057033;28;20059;-68
2021/05/22 09:02:20;;;;;;;7.25;6.65;;;14.70;99.90;;;;;;5051903;28;20052;-67
2021/05/22 09:05:10;;;;;;;7.43;6.70;;;14.50;99.90;;;;;;5051876;28;20121;-67
2021/05/22 09:07:44;;;;;;;8.57;6.93;;;14.60;99.90;;;;;;5051740;28;20052;-68
2021/05/22 09:10:20;;;;;;;7.30;6.70;;;14.60;99.90;;;;;;5025257;28;20045;-68
2021/05/22 09:13:00;;;;;;;7.90;7.00;;;14.50;99.90;;;;;;5056964;28;20447;-67
2021/05/22 09:15:30;;;;;;;7.53;6.85;;;14.60;99.90;;;;;;5055667;28;20037;-67
2021/05/22 09:18:14;;;;;;;8.32;7.45;;;14.70;99.90;;;;;;5055297;28;20045;-67
2021/05/22 09:20:49;;;;;;;7.10;6.43;;;14.80;99.90;;;;;;5055681;28;20376;-67
2021/05/22 09:23:22;;;;;;;7.88;7.20;;;15.10;99.90;;;;;;5041422;28;20447;-68
2021/05/22 09:25:53;;;;;;;7.78;7.15;;;15.10;99.90;;;;;;5054477;28;20112;-68
2021/05/22 09:28:27;;;;;;;7.90;7.20;;;15.20;99.90;;;;;;5054063;28;20099;-68
2021/05/22 09:30:56;;;;;;;8.13;6.97;;;15.30;99.90;;;;;;5053015;28;20419;-68
2021/05/22 09:33:26;;;;;;;7.78;7.07;;;15.40;99.90;;;;;;5055559;28;20495;-68
2021/05/22 09:36:03;;;;;;;7.43;6.70;;;15.70;99.90;;;;;;5056843;28;20088;-69
2021/05/22 09:38:43;;;;;;;7.57;6.97;;;15.60;99.90;;;;;;5052759;28;20052;-67
2021/05/22 09:41:21;;;;;;;7.72;7.03;;;15.50;99.90;;;;;;5053275;28;20049;-69
2021/05/22 09:44:10;;;;;;;7.90;7.13;;;15.70;99.90;;;;;;5052584;28;20048;-68
2021/05/22 09:46:57;;;;;;;8.05;7.35;;;15.90;99.90;;;;;;5055253;28;20186;-68
2021/05/22 09:49:33;;;;;;;8.00;7.30;;;16.00;99.90;;;;;;5054018;28;20064;-69
2021/05/22 09:52:08;;;;;;;7.60;6.68;;;15.70;99.90;;;;;;5055427;28;20132;-68
2021/05/22 09:54:55;;;;;;;7.13;6.55;;;15.90;99.90;;;;;;5052203;28;20049;-69
2021/05/22 09:57:32;;;;;;;7.60;6.90;;;15.60;99.90;;;;;;5053063;28;20521;-69
2021/05/22 10:00:08;;;;;;;7.35;6.70;;;15.80;99.90;;;;;;5054893;28;20041;-68
2021/05/22 10:02:53;;;;;;;7.75;7.05;;;16.00;99.90;;;;;;5069340;28;20496;-68
2021/05/22 10:05:28;;;;;;;7.53;6.93;;;16.10;99.90;;;;;;5055237;28;20061;-68
2021/05/22 10:07:56;;;;;;;8.68;7.55;;;16.10;99.90;;;;;;5050741;28;20045;-68
2021/05/22 10:10:38;;;;;;;7.78;7.07;;;15.60;99.90;;;;;;5050562;28;20041;-68
2021/05/22 10:13:10;;;;;;;7.70;7.10;;;15.60;99.90;;;;;;5040170;28;20131;-68
2021/05/22 10:15:37;;;;;;;8.50;7.60;;;15.90;99.90;;;;;;5055848;28;20093;-68
2021/05/22 10:18:05;;;;;;;8.00;7.30;;;16.20;99.90;;;;;;5051188;28;20476;-67
2021/05/22 10:20:33;;;;;;;9.13;7.80;;;15.90;99.90;;;;;;5054561;28;20049;-68
2021/05/22 10:23:02;;;;;;;13.65;7.97;;;15.50;99.90;;;;;;5053175;28;20057;-69
2021/05/22 10:25:29;;;;;;;7.90;7.28;;;15.20;99.90;;;;;;5049989;28;20451;-67
2021/05/22 10:27:58;;;;;;;10.18;7.10;;;15.00;99.90;;;;;;5050188;28;20118;-67
2021/05/22 10:30:26;;;;;;;7.88;7.05;;;15.20;99.90;;;;;;5045918;28;20522;-67
2021/05/22 10:33:01;;;;;;;7.30;6.70;;;15.50;99.90;;;;;;5049267;28;20045;-68
2021/05/22 10:35:38;;;;;;;7.82;7.13;;;15.60;99.90;;;;;;5048374;28;20049;-67
2021/05/22 10:38:05;;;;;;;8.00;7.28;;;15.60;99.90;;;;;;5044828;28;20049;-67
2021/05/22 10:40:44;;;;;;;7.90;7.20;;;15.40;99.90;;;;;;5048185;28;20068;-67
2021/05/22 10:43:12;;;;;;;7.60;7.00;;;15.20;99.90;;;;;;5047611;28;20047;-67
2021/05/22 10:45:42;;;;;;;7.47;6.88;;;15.20;99.90;;;;;;5047912;28;20039;-67
2021/05/22 10:48:16;;;;;;;7.72;6.97;;;15.30;99.90;;;;;;5033266;28;20044;-66
2021/05/22 10:50:47;;;;;;;7.32;6.63;;;15.30;99.90;;;;;;5048017;28;20450;-67
2021/05/22 10:53:21;;;;;;;7.20;6.38;;;15.30;99.90;;;;;;5050774;28;20523;-68
2021/05/22 10:56:14;;;;;;;7.80;7.10;;;15.60;99.90;;;;;;5049704;28;20503;-66
2021/05/22 10:58:57;;;;;;;7.80;7.10;;;16.10;99.90;;;;;;5032305;28;20416;-67
2021/05/22 11:01:34;;;;;;;7.20;6.60;;;16.40;99.90;;;;;;5048621;28;20049;-67
2021/05/22 11:06:59;;;;;;;9.00;6.75;;;17.30;99.90;;;;;;5050716;28;20443;-67
2021/05/22 11:09:27;;;;;;;8.00;7.30;;;17.70;99.90;;;;;;5047434;28;20045;-67
2021/05/22 11:12:01;;;;;;;7.20;6.50;;;17.70;99.90;;;;;;5048654;28;20053;-67
2021/05/22 11:14:52;;;;;;;7.68;7.07;;;17.50;99.90;;;;;;5048564;28;20084;-67
2021/05/22 11:17:19;;;;;;;7.72;7.03;;;17.30;99.90;;;;;;5046152;28;20142;-68
2021/05/22 11:22:31;;;;;;;7.60;6.90;;;16.90;99.90;;;;;;5050783;28;20160;-68
2021/05/22 11:25:07;;;;;;;7.57;6.60;;;16.80;99.90;;;;;;5048430;28;20045;-69
2021/05/22 11:27:49;;;;;;;7.05;6.45;;;16.80;99.90;;;;;;5048141;28;20107;-67
2021/05/22 11:30:28;;;;;;;10.65;6.55;;;16.60;99.90;;;;;;5048623;28;20044;-67
2021/05/22 11:32:57;;;;;;;7.57;6.88;;;16.60;99.90;;;;;;5051815;28;20128;-67
2021/05/22 11:38:18;;;;;;;8.65;7.00;;;16.80;99.90;;;;;;5048993;28;20452;-69
2021/05/22 11:40:59;;;;;;;7.10;6.47;;;17.00;99.90;;;;;;5047111;28;20040;-68
2021/05/22 11:43:31;;;;;;;;;;;17.40;99.90;;;;;;5049525;28;20045;-68
2021/05/22 11:46:01;;;;;;;;;;;17.50;99.90;;;;;;5048058;28;19924;-67
2021/05/22 11:48:30;;;;;;;7.60;6.90;;;17.20;98.80;;;;;;5044739;28;20381;-68
2021/05/22 11:50:57;;;;;;;7.18;6.53;;;17.00;98.70;;;;;;5045604;28;20461;-67
2021/05/22 11:53:26;;;;;;;7.68;7.07;;;17.60;99.20;;;;;;5047235;28;20057;-68
2021/05/22 11:56:14;;;;;;;8.15;6.80;;;18.30;98.60;;;;;;5047595;28;20099;-68
2021/05/22 11:58:48;;;;;;;7.78;7.10;;;18.60;96.50;;;;;;5046881;28;20094;-68
2021/05/22 12:01:19;;;;;;;7.68;7.00;;;18.80;94.70;;;;;;5047138;28;20471;-70
2021/05/22 12:03:49;;;;;;;8.00;7.30;;;18.60;93.40;;;;;;5044548;28;20041;-68
2021/05/22 12:06:28;;;;;;;7.88;7.10;;;18.60;94.20;;;;;;5050957;28;20045;-68
2021/05/22 12:09:06;;;;;;;7.57;6.88;;;19.10;93.00;;;;;;5049870;28;20049;-69
2021/05/22 12:11:37;;;;;;;7.30;6.60;;;19.10;91.60;;;;;;5053806;28;20057;-68
2021/05/22 12:14:06;;;;;;;6.95;6.45;;;18.40;90.80;;;;;;5051183;28;20131;-68
2021/05/22 12:16:36;;;;;;;7.65;6.90;;;18.40;91.50;;;;;;5035746;28;20107;-68
2021/05/22 12:19:39;;;;;;;7.38;6.63;;;18.50;91.10;;;;;;5049254;28;20124;-68
2021/05/22 12:22:11;;;;;;;7.75;6.95;;;18.50;91.20;;;;;;5054712;28;20099;-68
2021/05/22 12:24:39;;;;;;;7.75;7.00;;;19.00;90.80;;;;;;5060152;28;20048;-67
2021/05/22 12:27:12;;;;;;;9.27;8.27;;;19.40;90.50;;;;;;5058978;28;20056;-67
2021/05/22 12:29:46;;;;;;;8.23;7.20;;;19.50;90.00;;;;;;5061023;28;20100;-67
2021/05/22 12:32:14;;;;;;;8.05;7.43;;;20.00;86.50;;;;;;5057383;28;20075;-68
2021/05/22 12:34:42;;;;;;;7.50;6.93;;;20.00;86.20;;;;;;5057643;28;20613;-68
2021/05/22 12:37:14;;;;;;;8.10;7.50;;;20.40;84.80;;;;;;5058272;28;20049;-68
2021/05/22 12:39:44;;;;;;;10.63;7.30;;;20.50;82.20;;;;;;5054098;28;20144;-68
2021/05/22 12:42:31;;;;;;;7.47;6.85;;;19.90;83.60;;;;;;5058876;28;20049;-68
2021/05/22 12:45:14;;;;;;;7.78;7.05;;;20.20;82.90;;;;;;5040813;28;20045;-67
2021/05/22 12:47:51;;;;;;;8.27;7.57;;;20.50;81.50;;;;;;5047673;28;20064;-67
2021/05/22 12:50:31;;;;;;;7.68;7.07;;;20.60;80.60;;;;;;5052830;28;20051;-68
2021/05/22 12:53:07;;;;;;;7.70;7.10;;;20.60;80.60;;;;;;5036279;28;20076;-68
2021/05/22 12:55:37;;;;;;;8.10;7.30;;;20.20;80.70;;;;;;5050939;28;20063;-69
2021/05/22 12:58:24;;;;;;;8.38;7.28;;;20.20;81.20;;;;;;5051228;28;20094;-68
2021/05/22 13:00:52;;;;;;;7.93;7.10;;;20.20;79.60;;;;;;5063343;28;20056;-68
2021/05/22 13:03:41;;;;;;;8.25;7.28;;;20.10;81.20;;;;;;5053775;28;20036;-68
2021/05/22 13:06:24;;;;;;;7.75;7.15;;;20.00;81.50;;;;;;5054631;28;20109;-68
2021/05/22 13:08:52;;;;;;;7.80;7.10;;;20.00;81.10;;;;;;5052857;28;20139;-67
2021/05/22 13:11:21;;;;;;;8.40;7.70;;;20.20;80.30;;;;;;5052599;28;20114;-68
2021/05/22 13:14:03;;;;;;;9.07;8.32;;;20.60;79.50;;;;;;5058369;28;20332;-69
2021/05/22 13:16:31;;;;;;;;;;;20.90;78.20;;;;;;5036163;28;20045;-69